createdAt,value
2019-01-02T00:00:01.230Z,0.60
2019-01-02T00:01:01.230Z,0.60
2019-01-02T00:02:01.235Z,0.70
2019-01-02T00:03:01.244Z,0.60
2019-01-02T00:04:01.257Z,0.60
2019-01-02T00:05:01.261Z,0.60
2019-01-02T00:06:01.270Z,0.70
2019-01-02T00:07:01.278Z,0.60
2019-01-02T00:08:01.289Z,0.60
2019-01-02T00:09:01.295Z,0.80
2019-01-02T00:10:01.305Z,0.60
2019-01-02T00:11:01.313Z,0.60
2019-01-02T00:12:01.320Z,0.60
2019-01-02T00:13:01.331Z,0.60
2019-01-02T00:14:01.353Z,0.50
2019-01-02T00:15:01.353Z,0.60
2019-01-02T00:16:01.362Z,0.60
2019-01-02T00:17:01.362Z,0.70
2019-01-02T00:18:01.370Z,0.70
2019-01-02T00:19:01.390Z,0.70
2019-01-02T00:20:01.387Z,0.80
2019-01-02T00:21:01.398Z,0.80
2019-01-02T00:22:01.405Z,0.60
2019-01-02T00:23:01.412Z,0.70
2019-01-02T00:24:01.423Z,0.70
2019-01-02T00:25:01.428Z,0.70
2019-01-02T00:26:01.436Z,0.60
2019-01-02T00:27:01.445Z,0.70
2019-01-02T00:28:01.452Z,0.70
2019-01-02T00:29:01.462Z,0.70
2019-01-02T00:30:01.471Z,0.80
2019-01-02T00:31:01.476Z,0.60
2019-01-02T00:32:01.486Z,0.70
2019-01-02T00:33:01.498Z,0.70
2019-01-02T00:34:01.502Z,0.70
2019-01-02T00:35:01.509Z,0.70
2019-01-02T00:36:01.516Z,0.70
2019-01-02T00:37:01.527Z,0.70
2019-01-02T00:38:01.536Z,0.70
2019-01-02T00:39:01.539Z,0.70
2019-01-02T00:40:01.550Z,0.70
2019-01-02T00:41:01.556Z,0.70
2019-01-02T00:42:01.567Z,0.70
2019-01-02T00:43:01.573Z,0.60
2019-01-02T00:44:01.582Z,0.70
2019-01-02T00:45:01.591Z,0.70
2019-01-02T00:46:01.597Z,0.60
2019-01-02T00:47:01.604Z,0.70
2019-01-02T00:48:01.614Z,0.80
2019-01-02T00:49:01.624Z,0.80
2019-01-02T00:50:01.629Z,0.70
2019-01-02T00:51:01.638Z,0.60
2019-01-02T00:52:01.647Z,0.70
2019-01-02T00:53:01.688Z,0.60
2019-01-02T00:54:01.664Z,0.60
2019-01-02T00:55:01.674Z,0.80
2019-01-02T00:56:02.311Z,0.70
2019-01-02T00:57:01.687Z,1.10
2019-01-02T00:58:01.694Z,1.50
2019-01-02T00:59:01.701Z,1.50
2019-01-02T01:00:01.717Z,0.80
2019-01-02T01:01:01.717Z,0.80
2019-01-02T01:02:01.724Z,0.80
2019-01-02T01:03:01.735Z,0.80
2019-01-02T01:04:01.744Z,2.20
2019-01-02T01:05:01.748Z,1.80
2019-01-02T01:06:01.760Z,1.40
2019-01-02T01:07:01.764Z,1.20
2019-01-02T01:08:01.774Z,0.90
2019-01-02T01:09:01.796Z,0.80
2019-01-02T01:10:01.794Z,0.90
2019-01-02T01:11:01.797Z,0.70
2019-01-02T01:12:01.805Z,0.70
2019-01-02T01:13:01.813Z,0.70
2019-01-02T01:14:01.824Z,0.70
2019-01-02T01:15:01.829Z,0.70
2019-01-02T01:16:01.836Z,0.70
2019-01-02T01:17:01.843Z,0.70
2019-01-02T01:18:01.853Z,0.70
2019-01-02T01:19:01.860Z,0.80
2019-01-02T01:20:01.920Z,0.80
2019-01-02T01:21:01.876Z,0.90
2019-01-02T01:22:01.882Z,0.70
2019-01-02T01:23:01.890Z,0.70
2019-01-02T01:24:01.898Z,0.70
2019-01-02T01:25:01.906Z,0.80
2019-01-02T01:26:02.260Z,0.70
2019-01-02T01:27:01.921Z,0.80
2019-01-02T01:28:01.933Z,0.70
2019-01-02T01:29:01.936Z,0.60
2019-01-02T01:30:01.946Z,0.70
2019-01-02T01:31:01.960Z,0.70
2019-01-02T01:32:01.962Z,1.30
2019-01-02T01:33:01.974Z,1.80
2019-01-02T01:34:01.975Z,1.40
2019-01-02T01:35:01.988Z,0.90
2019-01-02T01:36:01.996Z,0.80
2019-01-02T01:37:01.998Z,0.80
2019-01-02T01:38:02.008Z,0.70
2019-01-02T01:39:02.020Z,0.80
2019-01-02T01:40:02.027Z,1.50
2019-01-02T01:41:02.028Z,1.80
2019-01-02T01:42:02.041Z,1.20
2019-01-02T01:43:02.050Z,1.10
2019-01-02T01:44:02.054Z,0.90
2019-01-02T01:45:02.063Z,0.70
2019-01-02T01:46:02.071Z,0.70
2019-01-02T01:47:02.079Z,0.70
2019-01-02T01:48:02.092Z,0.90
2019-01-02T01:49:02.094Z,0.70
2019-01-02T01:50:02.101Z,0.90
2019-01-02T01:51:02.107Z,0.80
2019-01-02T01:52:02.116Z,0.70
2019-01-02T01:53:02.122Z,0.90
2019-01-02T01:54:02.129Z,0.90
2019-01-02T01:55:02.137Z,0.90
2019-01-02T01:56:02.147Z,0.90
2019-01-02T01:57:02.153Z,1.00
2019-01-02T01:58:02.161Z,0.90
2019-01-02T01:59:02.169Z,1.00
2019-01-02T02:00:02.175Z,1.00
2019-01-02T02:01:02.184Z,1.20
2019-01-02T02:02:02.190Z,1.20
2019-01-02T02:03:02.198Z,1.00
2019-01-02T02:04:02.205Z,1.20
2019-01-02T02:05:02.213Z,1.60
2019-01-02T02:06:02.221Z,1.30
2019-01-02T02:07:02.227Z,1.10
2019-01-02T02:08:02.237Z,1.30
2019-01-02T02:09:02.243Z,1.40
2019-01-02T02:10:02.249Z,1.20
2019-01-02T02:11:02.256Z,1.20
2019-01-02T02:12:02.266Z,1.30
2019-01-02T02:13:02.270Z,1.50
2019-01-02T02:14:02.279Z,1.30
2019-01-02T02:15:02.291Z,1.50
2019-01-02T02:16:02.294Z,1.40
2019-01-02T02:17:02.302Z,1.60
2019-01-02T02:18:02.310Z,1.40
2019-01-02T02:19:02.334Z,1.70
2019-01-02T02:20:02.324Z,1.60
2019-01-02T02:21:02.327Z,1.60
2019-01-02T02:22:02.336Z,1.60
2019-01-02T02:23:02.348Z,1.70
2019-01-02T02:24:02.392Z,1.50
2019-01-02T02:25:02.358Z,2.00
2019-01-02T02:26:02.364Z,1.50
2019-01-02T02:27:02.372Z,1.50
2019-01-02T02:28:02.379Z,1.60
2019-01-02T02:29:02.385Z,1.20
2019-01-02T02:30:02.393Z,1.40
2019-01-02T02:31:02.397Z,1.30
2019-01-02T02:32:02.405Z,1.10
2019-01-02T02:33:02.414Z,1.40
2019-01-02T02:34:02.416Z,1.30
2019-01-02T02:35:02.424Z,1.30
2019-01-02T02:36:02.429Z,1.40
2019-01-02T02:37:02.435Z,1.30
2019-01-02T02:38:02.442Z,1.20
2019-01-02T02:39:02.450Z,1.20
2019-01-02T02:40:02.457Z,1.20
2019-01-02T02:41:02.462Z,1.20
2019-01-02T02:42:02.470Z,1.10
2019-01-02T02:43:02.476Z,1.10
2019-01-02T02:44:02.483Z,1.20
2019-01-02T02:45:02.489Z,1.10
2019-01-02T02:46:02.496Z,1.20
2019-01-02T02:47:02.505Z,1.00
2019-01-02T02:48:02.510Z,1.00
2019-01-02T02:49:02.514Z,1.00
2019-01-02T02:50:02.522Z,1.50
2019-01-02T02:51:02.529Z,1.20
2019-01-02T02:52:02.539Z,1.20
2019-01-02T02:53:02.539Z,1.20
2019-01-02T02:54:02.545Z,1.50
2019-01-02T02:55:02.552Z,1.20
2019-01-02T02:56:02.560Z,1.40
2019-01-02T02:57:02.562Z,1.50
2019-01-02T02:58:02.571Z,1.30
2019-01-02T02:59:02.578Z,1.00
2019-01-02T03:00:02.584Z,1.20
2019-01-02T03:01:02.589Z,1.10
2019-01-02T03:02:02.597Z,1.20
2019-01-02T03:03:02.601Z,1.10
2019-01-02T03:04:02.608Z,1.20
2019-01-02T03:05:02.614Z,1.10
2019-01-02T03:06:02.622Z,1.40
2019-01-02T03:07:02.633Z,1.40
2019-01-02T03:08:02.635Z,1.30
2019-01-02T03:09:02.639Z,1.60
2019-01-02T03:10:02.647Z,1.30
2019-01-02T03:11:02.653Z,1.30
2019-01-02T03:12:02.661Z,1.40
2019-01-02T03:13:02.666Z,1.30
2019-01-02T03:14:02.671Z,1.30
2019-01-02T03:15:02.679Z,1.70
2019-01-02T03:16:02.684Z,1.80
2019-01-02T03:17:02.689Z,1.70
2019-01-02T03:18:02.699Z,1.50
2019-01-02T03:19:02.702Z,1.70
2019-01-02T03:20:02.708Z,2.10
2019-01-02T03:21:02.714Z,2.10
2019-01-02T03:22:02.720Z,1.80
2019-01-02T03:23:02.725Z,2.00
2019-01-02T03:24:02.731Z,1.80
2019-01-02T03:25:02.740Z,1.80
2019-01-02T03:26:02.746Z,2.20
2019-01-02T03:27:02.749Z,2.00
2019-01-02T03:28:02.755Z,1.70
2019-01-02T03:29:02.763Z,1.70
2019-01-02T03:30:02.769Z,2.10
2019-01-02T03:31:02.775Z,2.20
2019-01-02T03:32:02.781Z,2.40
2019-01-02T03:33:02.784Z,2.10
2019-01-02T03:34:02.792Z,1.80
2019-01-02T03:35:02.796Z,2.10
2019-01-02T03:36:02.801Z,2.30
2019-01-02T03:37:02.808Z,2.60
2019-01-02T03:38:02.816Z,2.50
2019-01-02T03:39:02.821Z,2.10
2019-01-02T03:40:02.826Z,2.70
2019-01-02T03:41:02.830Z,2.20
2019-01-02T03:42:02.842Z,2.50
2019-01-02T03:43:02.843Z,2.40
2019-01-02T03:44:02.851Z,1.90
2019-01-02T03:45:02.855Z,2.20
2019-01-02T03:46:02.860Z,1.80
2019-01-02T03:47:02.865Z,1.70
2019-01-02T03:48:02.871Z,1.80
2019-01-02T03:49:02.876Z,1.90
2019-01-02T03:50:02.882Z,1.60
2019-01-02T03:51:02.890Z,2.00
2019-01-02T03:52:02.892Z,1.80
2019-01-02T03:53:02.898Z,1.90
2019-01-02T03:54:02.902Z,1.80
2019-01-02T03:55:02.908Z,1.50
2019-01-02T03:56:02.914Z,1.60
2019-01-02T03:57:02.919Z,1.60
2019-01-02T03:58:02.924Z,1.40
2019-01-02T03:59:02.929Z,1.30
2019-01-02T04:00:02.934Z,1.50
2019-01-02T04:01:02.941Z,1.50
2019-01-02T04:02:02.945Z,1.40
2019-01-02T04:03:02.953Z,1.50
2019-01-02T04:04:02.956Z,1.30
2019-01-02T04:05:02.961Z,1.30
2019-01-02T04:06:02.966Z,1.30
2019-01-02T04:07:02.974Z,1.10
2019-01-02T04:08:02.978Z,1.10
2019-01-02T04:09:02.982Z,1.20
2019-01-02T04:10:02.988Z,1.20
2019-01-02T04:11:02.992Z,1.10
2019-01-02T04:12:02.998Z,1.00
2019-01-02T04:13:03.003Z,1.00
2019-01-02T04:14:03.010Z,1.30
2019-01-02T04:15:03.018Z,1.10
2019-01-02T04:16:03.024Z,1.30
2019-01-02T04:17:03.029Z,1.10
2019-01-02T04:18:03.031Z,1.00
2019-01-02T04:19:03.036Z,1.00
2019-01-02T04:20:03.041Z,1.10
2019-01-02T04:21:03.049Z,0.90
2019-01-02T04:22:03.053Z,1.10
2019-01-02T04:23:03.055Z,1.10
2019-01-02T04:24:03.064Z,1.00
2019-01-02T04:25:03.066Z,1.20
2019-01-02T04:26:03.073Z,0.90
2019-01-02T04:27:03.074Z,1.00
2019-01-02T04:28:03.082Z,0.80
2019-01-02T04:29:03.086Z,0.80
2019-01-02T04:30:03.090Z,0.80
2019-01-02T04:31:03.095Z,1.00
2019-01-02T04:32:03.105Z,0.90
2019-01-02T04:33:03.105Z,1.30
2019-01-02T04:34:03.113Z,1.50
2019-01-02T04:35:03.116Z,1.50
2019-01-02T04:36:03.123Z,1.10
2019-01-02T04:37:03.129Z,1.00
2019-01-02T04:38:03.132Z,1.00
2019-01-02T04:39:03.136Z,1.10
2019-01-02T04:40:03.150Z,1.10
2019-01-02T04:41:03.149Z,1.40
2019-01-02T04:42:03.154Z,1.30
2019-01-02T04:43:03.159Z,1.40
2019-01-02T04:44:03.165Z,1.50
2019-01-02T04:45:03.171Z,1.40
2019-01-02T04:46:03.174Z,1.20
2019-01-02T04:47:03.179Z,1.20
2019-01-02T04:48:03.182Z,1.20
2019-01-02T04:49:03.187Z,1.40
2019-01-02T04:50:03.195Z,1.50
2019-01-02T04:51:03.199Z,1.30
2019-01-02T04:52:03.203Z,1.30
2019-01-02T04:53:03.209Z,1.30
2019-01-02T04:54:03.213Z,1.30
2019-01-02T04:55:03.222Z,1.40
2019-01-02T04:56:03.512Z,1.40
2019-01-02T04:57:03.228Z,1.20
2019-01-02T04:58:03.233Z,1.20
2019-01-02T04:59:03.240Z,1.00
2019-01-02T05:00:03.247Z,1.30
2019-01-02T05:01:03.252Z,1.20
2019-01-02T05:02:03.254Z,1.20
2019-01-02T05:03:03.260Z,1.20
2019-01-02T05:04:03.274Z,1.20
2019-01-02T05:05:03.268Z,1.30
2019-01-02T05:06:03.274Z,1.50
2019-01-02T05:07:03.281Z,1.30
2019-01-02T05:08:03.286Z,1.40
2019-01-02T05:09:03.291Z,1.20
2019-01-02T05:10:03.296Z,1.40
2019-01-02T05:11:03.303Z,1.30
2019-01-02T05:12:03.310Z,1.10
2019-01-02T05:13:03.344Z,1.00
2019-01-02T05:14:03.314Z,1.00
2019-01-02T05:15:03.321Z,1.00
2019-01-02T05:16:03.326Z,1.00
2019-01-02T05:17:03.329Z,1.10
2019-01-02T05:18:03.338Z,0.90
2019-01-02T05:19:03.353Z,1.40
2019-01-02T05:20:03.344Z,1.00
2019-01-02T05:21:03.350Z,1.00
2019-01-02T05:22:03.366Z,1.30
2019-01-02T05:23:03.358Z,1.20
2019-01-02T05:24:03.365Z,1.40
2019-01-02T05:25:03.370Z,1.30
2019-01-02T05:26:03.374Z,1.10
2019-01-02T05:27:03.381Z,1.10
2019-01-02T05:28:03.387Z,1.00
2019-01-02T05:29:03.390Z,0.90
2019-01-02T05:30:03.394Z,1.10
2019-01-02T05:31:03.402Z,1.00
2019-01-02T05:32:03.408Z,0.80
2019-01-02T05:33:03.413Z,1.00
2019-01-02T05:34:03.414Z,0.90
2019-01-02T05:35:03.420Z,1.30
2019-01-02T05:36:03.425Z,1.00
2019-01-02T05:37:03.429Z,1.00
2019-01-02T05:38:03.437Z,1.10
2019-01-02T05:39:03.438Z,1.20
2019-01-02T05:40:03.444Z,1.00
2019-01-02T05:41:03.448Z,1.30
2019-01-02T05:42:03.454Z,1.10
2019-01-02T05:43:03.458Z,1.20
2019-01-02T05:44:03.467Z,0.90
2019-01-02T05:45:03.466Z,1.00
2019-01-02T05:46:03.473Z,0.80
2019-01-02T05:47:03.476Z,1.00
2019-01-02T05:48:03.481Z,0.90
2019-01-02T05:49:03.484Z,1.00
2019-01-02T05:50:03.491Z,1.00
2019-01-02T05:51:03.495Z,0.90
2019-01-02T05:52:03.505Z,1.10
2019-01-02T05:53:03.505Z,0.70
2019-01-02T05:54:03.510Z,0.80
2019-01-02T05:55:03.514Z,0.70
2019-01-02T05:56:03.519Z,0.80
2019-01-02T05:57:03.523Z,0.90
2019-01-02T05:58:03.530Z,0.80
2019-01-02T05:59:03.532Z,1.00
2019-01-02T06:00:03.539Z,0.80
2019-01-02T06:01:03.543Z,1.00
2019-01-02T06:02:03.549Z,0.90
2019-01-02T06:03:03.556Z,0.90
2019-01-02T06:04:03.560Z,0.90
2019-01-02T06:05:03.569Z,0.90
2019-01-02T06:06:03.567Z,1.10
2019-01-02T06:07:03.573Z,0.90
2019-01-02T06:08:03.576Z,0.80
2019-01-02T06:09:03.583Z,0.80
2019-01-02T06:10:03.587Z,0.70
2019-01-02T06:11:03.593Z,0.80
2019-01-02T06:12:03.596Z,0.90
2019-01-02T06:13:03.602Z,1.00
2019-01-02T06:14:03.605Z,1.10
2019-01-02T06:15:03.610Z,0.90
2019-01-02T06:16:03.615Z,0.90
2019-01-02T06:17:03.621Z,0.90
2019-01-02T06:18:03.627Z,0.90
2019-01-02T06:19:03.630Z,1.10
2019-01-02T06:20:03.633Z,1.00
2019-01-02T06:21:03.640Z,0.90
2019-01-02T06:22:03.645Z,1.00
2019-01-02T06:23:03.649Z,1.00
2019-01-02T06:24:03.656Z,1.00
2019-01-02T06:25:03.663Z,1.00
2019-01-02T06:26:03.662Z,0.80
2019-01-02T06:27:03.669Z,1.00
2019-01-02T06:28:03.673Z,0.80
2019-01-02T06:29:03.677Z,1.00
2019-01-02T06:30:03.681Z,0.80
2019-01-02T06:31:03.688Z,1.00
2019-01-02T06:32:03.695Z,0.90
2019-01-02T06:33:03.695Z,0.80
2019-01-02T06:34:03.702Z,0.90
2019-01-02T06:35:03.707Z,1.10
2019-01-02T06:36:03.714Z,0.90
2019-01-02T06:37:03.716Z,0.90
2019-01-02T06:38:03.718Z,1.00
2019-01-02T06:39:03.728Z,0.90
2019-01-02T06:40:03.734Z,0.80
2019-01-02T06:41:03.736Z,0.90
2019-01-02T06:42:03.738Z,0.80
2019-01-02T06:43:03.743Z,0.90
2019-01-02T06:44:03.751Z,0.90
2019-01-02T06:45:03.753Z,1.00
2019-01-02T06:46:03.797Z,0.90
2019-01-02T06:47:03.762Z,0.80
2019-01-02T06:48:03.768Z,0.80
2019-01-02T06:49:03.770Z,0.80
2019-01-02T06:50:03.777Z,0.80
2019-01-02T06:51:03.780Z,1.00
2019-01-02T06:52:03.784Z,0.90
2019-01-02T06:53:03.788Z,0.80
2019-01-02T06:54:03.792Z,0.80
2019-01-02T06:55:03.805Z,0.70
2019-01-02T06:56:03.802Z,1.10
2019-01-02T06:57:03.805Z,1.00
2019-01-02T06:58:03.810Z,0.90
2019-01-02T06:59:03.817Z,0.90
2019-01-02T07:00:03.821Z,0.90
2019-01-02T07:01:03.824Z,0.90
2019-01-02T07:02:03.829Z,0.80
2019-01-02T07:03:03.833Z,1.00
2019-01-02T07:04:03.843Z,0.80
2019-01-02T07:05:03.841Z,0.70
2019-01-02T07:06:03.846Z,0.90
2019-01-02T07:07:03.851Z,0.70
2019-01-02T07:08:03.856Z,0.70
2019-01-02T07:09:03.873Z,0.80
2019-01-02T07:10:03.866Z,0.90
2019-01-02T07:11:03.869Z,0.80
2019-01-02T07:12:03.876Z,0.80
2019-01-02T07:13:03.878Z,0.70
2019-01-02T07:14:03.884Z,0.90
2019-01-02T07:15:03.886Z,0.80
2019-01-02T07:16:03.892Z,0.80
2019-01-02T07:17:03.895Z,0.80
2019-01-02T07:18:03.901Z,0.90
2019-01-02T07:19:03.904Z,1.00
2019-01-02T07:20:03.909Z,1.40
2019-01-02T07:21:03.912Z,0.80
2019-01-02T07:22:03.917Z,1.00
2019-01-02T07:23:03.924Z,0.80
2019-01-02T07:24:03.928Z,0.70
2019-01-02T07:25:03.932Z,0.90
2019-01-02T07:26:03.934Z,0.90
2019-01-02T07:27:03.941Z,0.70
2019-01-02T07:28:03.952Z,0.80
2019-01-02T07:29:03.952Z,0.80
2019-01-02T07:30:03.954Z,0.90
2019-01-02T07:31:03.961Z,1.00
2019-01-02T07:32:03.965Z,0.90
2019-01-02T07:33:03.968Z,0.80
2019-01-02T07:34:03.974Z,0.80
2019-01-02T07:35:03.978Z,0.90
2019-01-02T07:36:03.985Z,0.90
2019-01-02T07:37:03.985Z,0.80
2019-01-02T07:38:04.002Z,0.80
2019-01-02T07:39:03.997Z,0.90
2019-01-02T07:40:04.004Z,0.90
2019-01-02T07:41:04.007Z,0.90
2019-01-02T07:42:04.017Z,1.00
2019-01-02T07:43:04.022Z,0.90
2019-01-02T07:44:04.022Z,0.70
2019-01-02T07:45:04.026Z,0.90
2019-01-02T07:46:04.060Z,0.80
2019-01-02T07:47:04.033Z,0.90
2019-01-02T07:48:04.041Z,0.90
2019-01-02T07:49:04.046Z,0.90
2019-01-02T07:50:04.049Z,0.90
2019-01-02T07:51:04.057Z,0.80
2019-01-02T07:52:04.059Z,1.00
2019-01-02T07:53:04.063Z,0.90
2019-01-02T07:54:04.065Z,0.80
2019-01-02T07:55:04.070Z,0.80
2019-01-02T07:56:04.078Z,0.80
2019-01-02T07:57:04.078Z,0.70
2019-01-02T07:58:04.083Z,0.80
2019-01-02T07:59:04.095Z,0.80
2019-01-02T08:00:04.096Z,0.80
2019-01-02T08:01:04.094Z,0.80
2019-01-02T08:02:04.100Z,0.80
2019-01-02T08:03:04.105Z,0.80
2019-01-02T08:04:04.109Z,0.80
2019-01-02T08:05:04.118Z,1.00
2019-01-02T08:06:04.116Z,0.80
2019-01-02T08:07:04.122Z,0.70
2019-01-02T08:08:04.128Z,0.80
2019-01-02T08:09:04.132Z,0.80
2019-01-02T08:10:04.134Z,0.80
2019-01-02T08:11:04.140Z,0.80
2019-01-02T08:12:04.147Z,1.00
2019-01-02T08:13:04.148Z,0.70
2019-01-02T08:14:04.152Z,0.90
2019-01-02T08:15:04.156Z,0.80
2019-01-02T08:16:04.161Z,0.90
2019-01-02T08:17:04.168Z,0.80
2019-01-02T08:18:04.168Z,0.70
2019-01-02T08:19:04.172Z,0.90
2019-01-02T08:20:04.225Z,0.90
2019-01-02T08:21:04.181Z,0.80
2019-01-02T08:22:04.186Z,0.80
2019-01-02T08:23:04.199Z,0.90
2019-01-02T08:24:04.195Z,0.90
2019-01-02T08:25:04.198Z,0.80
2019-01-02T08:26:04.205Z,0.80
2019-01-02T08:27:04.209Z,0.80
2019-01-02T08:28:04.213Z,1.00
2019-01-02T08:29:04.216Z,0.90
2019-01-02T08:30:04.219Z,0.80
2019-01-02T08:31:04.224Z,0.90
2019-01-02T08:32:04.232Z,0.90
2019-01-02T08:33:04.233Z,0.90
2019-01-02T08:34:04.239Z,0.80
2019-01-02T08:35:04.240Z,0.80
2019-01-02T08:36:04.247Z,1.20
2019-01-02T08:37:04.249Z,1.30
2019-01-02T08:38:04.253Z,1.20
2019-01-02T08:39:04.262Z,1.00
2019-01-02T08:40:04.265Z,1.00
2019-01-02T08:41:04.267Z,0.90
2019-01-02T08:42:04.281Z,1.00
2019-01-02T08:43:04.279Z,0.80
2019-01-02T08:44:04.280Z,0.80
2019-01-02T08:45:04.283Z,1.00
2019-01-02T08:46:04.289Z,1.20
2019-01-02T08:47:04.296Z,1.10
2019-01-02T08:48:04.296Z,1.10
2019-01-02T08:49:04.302Z,0.90
2019-01-02T08:50:04.308Z,0.90
2019-01-02T08:51:04.312Z,1.00
2019-01-02T08:52:04.313Z,0.90
2019-01-02T08:53:04.320Z,1.00
2019-01-02T08:54:04.322Z,0.80
2019-01-02T08:55:04.329Z,1.10
2019-01-02T08:56:04.333Z,0.80
2019-01-02T08:57:04.336Z,1.00
2019-01-02T08:58:04.339Z,1.00
2019-01-02T08:59:04.345Z,0.90
2019-01-02T09:00:04.351Z,1.00
2019-01-02T09:01:04.357Z,0.90
2019-01-02T09:02:04.361Z,0.90
2019-01-02T09:03:04.359Z,1.20
2019-01-02T09:04:04.367Z,2.00
2019-01-02T09:05:04.370Z,1.70
2019-01-02T09:06:04.378Z,1.40
2019-01-02T09:07:04.381Z,1.10
2019-01-02T09:08:04.386Z,1.40
2019-01-02T09:09:04.386Z,1.20
2019-01-02T09:10:04.391Z,1.10
2019-01-02T09:11:04.395Z,1.00
2019-01-02T09:12:04.404Z,1.00
2019-01-02T09:13:04.403Z,1.00
2019-01-02T09:14:04.416Z,0.90
2019-01-02T09:15:04.415Z,0.70
2019-01-02T09:16:04.435Z,0.90
2019-01-02T09:17:04.421Z,0.80
2019-01-02T09:18:04.427Z,0.70
2019-01-02T09:19:04.432Z,0.80
2019-01-02T09:20:04.437Z,0.80
2019-01-02T09:21:04.445Z,0.90
2019-01-02T09:22:04.445Z,0.70
2019-01-02T09:23:04.453Z,0.90
2019-01-02T09:24:04.457Z,0.80
2019-01-02T09:25:04.459Z,0.80
2019-01-02T09:26:04.463Z,0.90
2019-01-02T09:27:04.468Z,0.80
2019-01-02T09:28:04.478Z,0.80
2019-01-02T09:29:04.480Z,0.80
2019-01-02T09:30:04.488Z,0.70
2019-01-02T09:31:04.492Z,0.90
2019-01-02T09:32:04.495Z,0.80
2019-01-02T09:33:04.498Z,0.90
2019-01-02T09:34:04.504Z,0.70
2019-01-02T09:35:04.508Z,0.80
2019-01-02T09:36:04.550Z,0.90
2019-01-02T09:37:04.521Z,0.90
2019-01-02T09:38:04.528Z,1.00
2019-01-02T09:39:04.530Z,0.80
2019-01-02T09:40:04.534Z,0.90
2019-01-02T09:41:04.537Z,0.90
2019-01-02T09:42:04.544Z,0.90
2019-01-02T09:43:04.550Z,0.90
2019-01-02T09:44:04.553Z,1.00
2019-01-02T09:45:04.560Z,0.90
2019-01-02T09:46:04.566Z,0.90
2019-01-02T09:47:04.571Z,0.80
2019-01-02T09:48:04.674Z,1.20
2019-01-02T09:49:04.577Z,0.90
2019-01-02T09:50:04.599Z,1.10
2019-01-02T09:51:04.593Z,1.00
2019-01-02T09:52:04.594Z,1.10
2019-01-02T09:53:04.601Z,0.90
2019-01-02T09:54:04.609Z,1.00
2019-01-02T09:55:04.611Z,0.80
2019-01-02T09:56:04.617Z,0.90
2019-01-02T09:57:04.625Z,0.80
2019-01-02T09:58:04.630Z,0.90
2019-01-02T09:59:05.322Z,1.00
2019-01-02T10:00:04.640Z,0.90
2019-01-02T10:01:04.644Z,0.90
2019-01-02T10:02:04.652Z,1.00
2019-01-02T10:03:04.658Z,1.20
2019-01-02T10:04:04.713Z,0.90
2019-01-02T10:05:04.668Z,0.90
2019-01-02T10:06:04.674Z,0.80
2019-01-02T10:07:04.680Z,0.90
2019-01-02T10:08:04.687Z,1.10
2019-01-02T10:09:04.692Z,1.20
2019-01-02T10:10:04.698Z,1.00
2019-01-02T10:11:04.705Z,0.80
2019-01-02T10:12:04.711Z,0.70
2019-01-02T10:13:04.715Z,0.90
2019-01-02T10:14:04.722Z,1.00
2019-01-02T10:15:04.727Z,1.00
2019-01-02T10:16:04.735Z,0.90
2019-01-02T10:17:04.738Z,0.90
2019-01-02T10:18:04.748Z,0.90
2019-01-02T10:19:04.753Z,1.10
2019-01-02T10:20:04.760Z,1.00
2019-01-02T10:21:04.765Z,0.90
2019-01-02T10:22:04.779Z,0.80
2019-01-02T10:23:04.780Z,0.90
2019-01-02T10:24:04.787Z,0.90
2019-01-02T10:25:04.796Z,0.80
2019-01-02T10:26:04.799Z,0.80
2019-01-02T10:27:04.809Z,0.90
2019-01-02T10:28:04.814Z,0.90
2019-01-02T10:29:04.823Z,0.90
2019-01-02T10:30:04.833Z,1.00
2019-01-02T10:31:04.836Z,1.00
2019-01-02T10:32:04.846Z,1.00
2019-01-02T10:33:04.851Z,0.90
2019-01-02T10:34:04.858Z,1.00
2019-01-02T10:35:04.868Z,0.80
2019-01-02T10:36:04.876Z,1.00
2019-01-02T10:37:04.884Z,1.00
2019-01-02T10:38:04.889Z,0.80
2019-01-02T10:39:04.898Z,1.10
2019-01-02T10:40:04.904Z,1.10
2019-01-02T10:41:04.909Z,1.00
2019-01-02T10:42:04.918Z,1.00
2019-01-02T10:43:04.928Z,1.10
2019-01-02T10:44:04.933Z,0.90
2019-01-02T10:45:04.941Z,0.90
2019-01-02T10:46:04.950Z,0.90
2019-01-02T10:47:04.956Z,1.00
2019-01-02T10:48:04.963Z,0.90
2019-01-02T10:49:04.973Z,1.10
2019-01-02T10:50:04.978Z,1.10
2019-01-02T10:51:04.987Z,1.00
2019-01-02T10:52:04.993Z,1.10
2019-01-02T10:53:05.002Z,0.90
2019-01-02T10:54:05.012Z,1.00
2019-01-02T10:55:05.020Z,1.20
2019-01-02T10:56:05.028Z,1.10
2019-01-02T10:57:05.036Z,1.00
2019-01-02T10:58:05.042Z,1.00
2019-01-02T10:59:05.049Z,1.00
2019-01-02T11:00:05.061Z,1.30
2019-01-02T11:01:05.069Z,1.20
2019-01-02T11:02:05.074Z,1.00
2019-01-02T11:03:05.092Z,0.90
2019-01-02T11:04:05.089Z,1.20
2019-01-02T11:05:05.098Z,1.00
2019-01-02T11:06:05.113Z,1.00
2019-01-02T11:07:05.114Z,0.80
2019-01-02T11:08:05.122Z,0.90
2019-01-02T11:09:05.129Z,0.70
2019-01-02T11:10:05.139Z,0.80
2019-01-02T11:11:05.147Z,0.80
2019-01-02T11:12:05.156Z,0.90
2019-01-02T11:13:05.160Z,0.70
2019-01-02T11:14:05.172Z,0.70
2019-01-02T11:15:05.179Z,0.70
2019-01-02T11:16:05.192Z,0.80
2019-01-02T11:17:05.194Z,0.80
2019-01-02T11:18:05.207Z,0.80
2019-01-02T11:19:05.212Z,0.80
2019-01-02T11:20:05.222Z,0.80
2019-01-02T11:21:05.230Z,0.70
2019-01-02T11:22:05.240Z,0.70
2019-01-02T11:23:05.295Z,0.80
2019-01-02T11:24:05.255Z,0.80
2019-01-02T11:25:05.267Z,0.70
2019-01-02T11:26:05.273Z,0.70
2019-01-02T11:27:05.290Z,0.70
2019-01-02T11:28:05.293Z,0.70
2019-01-02T11:29:05.299Z,0.70
2019-01-02T11:30:05.305Z,0.90
2019-01-02T11:31:05.323Z,0.70
2019-01-02T11:32:05.327Z,1.10
2019-01-02T11:33:05.331Z,1.00
2019-01-02T11:34:05.346Z,0.80
2019-01-02T11:35:05.352Z,1.00
2019-01-02T11:36:05.356Z,1.00
2019-01-02T11:37:05.367Z,1.00
2019-01-02T11:38:05.377Z,1.00
2019-01-02T11:39:05.382Z,1.10
2019-01-02T11:40:05.392Z,1.00
2019-01-02T11:41:05.403Z,1.10
2019-01-02T11:42:05.412Z,1.10
2019-01-02T11:43:05.423Z,1.00
2019-01-02T11:44:05.427Z,1.00
2019-01-02T11:45:05.437Z,1.20
2019-01-02T11:46:05.446Z,1.10
2019-01-02T11:47:05.455Z,0.90
2019-01-02T11:48:05.466Z,0.90
2019-01-02T11:49:05.517Z,1.00
2019-01-02T11:50:05.482Z,0.90
2019-01-02T11:51:05.490Z,1.10
2019-01-02T11:52:05.503Z,1.10
2019-01-02T11:53:05.510Z,1.10
2019-01-02T11:54:05.519Z,1.00
2019-01-02T11:55:05.526Z,0.90
2019-01-02T11:56:05.534Z,1.00
2019-01-02T11:57:05.543Z,1.00
2019-01-02T11:58:05.552Z,1.10
2019-01-02T11:59:05.561Z,0.90
2019-01-02T12:00:05.577Z,0.90
2019-01-02T12:01:05.578Z,0.90
2019-01-02T12:02:05.588Z,0.90
2019-01-02T12:03:05.596Z,0.80
2019-01-02T12:04:05.605Z,1.00
2019-01-02T12:05:05.615Z,0.90
2019-01-02T12:06:05.621Z,0.90
2019-01-02T12:07:05.632Z,0.80
2019-01-02T12:08:05.640Z,0.80
2019-01-02T12:09:05.650Z,0.90
2019-01-02T12:10:05.657Z,0.90
2019-01-02T12:11:05.668Z,1.10
2019-01-02T12:12:05.674Z,1.20
2019-01-02T12:13:07.029Z,1.00
2019-01-02T12:14:05.694Z,1.00
2019-01-02T12:15:05.706Z,1.00
2019-01-02T12:16:05.714Z,1.20
2019-01-02T12:17:05.721Z,1.00
2019-01-02T12:18:05.731Z,1.20
2019-01-02T12:19:05.740Z,1.00
2019-01-02T12:20:05.748Z,1.00
2019-01-02T12:21:05.757Z,1.00
2019-01-02T12:22:05.771Z,1.00
2019-01-02T12:23:05.778Z,1.10
2019-01-02T12:24:05.788Z,1.30
2019-01-02T12:25:05.797Z,0.90
2019-01-02T12:26:05.862Z,1.00
2019-01-02T12:27:05.816Z,1.20
2019-01-02T12:28:05.829Z,1.20
2019-01-02T12:29:05.834Z,1.20
2019-01-02T12:30:05.846Z,1.00
2019-01-02T12:31:05.854Z,1.00
2019-01-02T12:32:05.866Z,0.90
2019-01-02T12:33:06.815Z,1.30
2019-01-02T12:34:05.883Z,1.00
2019-01-02T12:35:05.895Z,1.00
2019-01-02T12:36:05.902Z,0.90
2019-01-02T12:37:05.911Z,1.10
2019-01-02T12:38:05.922Z,1.10
2019-01-02T12:39:05.961Z,0.90
2019-01-02T12:40:05.942Z,1.10
2019-01-02T12:41:05.950Z,1.00
2019-01-02T12:42:05.962Z,1.00
2019-01-02T12:43:06.025Z,1.20
2019-01-02T12:44:05.978Z,1.10
2019-01-02T12:45:05.989Z,0.90
2019-01-02T12:46:05.999Z,0.90
2019-01-02T12:47:06.011Z,1.00
2019-01-02T12:48:06.021Z,0.90
2019-01-02T12:49:06.034Z,0.90
2019-01-02T12:50:06.037Z,1.00
2019-01-02T12:51:06.098Z,1.10
2019-01-02T12:52:06.058Z,1.00
2019-01-02T12:53:06.065Z,0.90
2019-01-02T12:54:06.078Z,1.00
2019-01-02T12:55:06.089Z,1.10
2019-01-02T12:56:06.098Z,1.00
2019-01-02T12:57:06.104Z,1.10
2019-01-02T12:58:06.113Z,1.00
2019-01-02T12:59:06.125Z,1.00
2019-01-02T13:00:06.133Z,1.20
2019-01-02T13:01:06.139Z,1.20
2019-01-02T13:02:06.149Z,1.00
2019-01-02T13:03:06.159Z,0.90
2019-01-02T13:04:06.167Z,1.20
2019-01-02T13:05:06.178Z,1.10
2019-01-02T13:06:06.188Z,1.10
2019-01-02T13:07:06.195Z,1.20
2019-01-02T13:08:06.204Z,1.00
2019-01-02T13:09:06.211Z,1.10
2019-01-02T13:10:06.221Z,1.20
2019-01-02T13:11:06.229Z,1.00
2019-01-02T13:12:06.237Z,1.20
2019-01-02T13:13:06.252Z,1.20
2019-01-02T13:14:06.258Z,1.20
2019-01-02T13:15:06.265Z,1.30
2019-01-02T13:16:06.273Z,1.30
2019-01-02T13:17:06.284Z,1.40
2019-01-02T13:18:06.292Z,1.40